Time;durP1;ratioP1;P1;durP2;ratioP2;P2;SDS_P1;SDS_P2;PMS_P1;PMS_P2;Temp;Humidity;BMP_temperature;BMP_pressure;BME280_temperature;BME280_humidity;BME280_pressure;Samples;Min_cycle;Max_cycle;Signal;HPM_P1;HPM_P2
2022/09/06 00:01:42;;;;;;;7.10;4.30;;;;;;;11.47;71.42;97372.80;107793;1271;25305;-77
2022/09/06 00:04:13;;;;;;;5.70;3.70;;;;;;;11.50;71.51;97368.81;107863;1271;22563;-78
2022/09/06 00:06:44;;;;;;;5.70;3.60;;;;;;;11.56;70.91;97369.03;107870;1270;22519;-78
2022/09/06 00:09:15;;;;;;;7.00;3.70;;;;;;;11.63;70.78;97369.62;107821;1271;22537;-78
2022/09/06 00:11:46;;;;;;;6.50;3.90;;;;;;;11.67;70.66;97363.08;107770;1270;32901;-77
2022/09/06 00:14:17;;;;;;;6.00;4.10;;;;;;;11.72;70.61;97368.25;107835;1270;22537;-79
2022/09/06 00:16:48;;;;;;;6.30;4.20;;;;;;;11.73;70.56;97366.80;107886;1270;23824;-79
2022/09/06 00:19:19;;;;;;;7.50;4.30;;;;;;;11.66;70.91;97365.15;107864;1270;22552;-78
2022/09/06 00:21:51;;;;;;;6.90;3.90;;;;;;;11.56;70.85;97363.15;107755;1270;23717;-78
2022/09/06 00:24:24;;;;;;;7.80;4.70;;;;;;;11.53;70.91;97365.26;107872;1269;22541;-78
2022/09/06 00:26:55;;;;;;;7.20;4.60;;;;;;;11.51;70.91;97364.62;107849;1270;22537;-78
2022/09/06 00:29:26;;;;;;;6.80;4.20;;;;;;;11.49;71.12;97365.84;107890;1270;22533;-79
2022/09/06 00:31:58;;;;;;;7.50;4.40;;;;;;;11.49;71.12;97365.15;107798;1270;31080;-78
2022/09/06 00:34:29;;;;;;;7.10;3.70;;;;;;;11.49;71.25;97363.67;107830;1270;25342;-78
2022/09/06 00:37:00;;;;;;;6.10;4.10;;;;;;;11.54;71.39;97364.59;107856;1270;22538;-79
2022/09/06 00:39:31;;;;;;;7.00;4.20;;;;;;;11.62;71.27;97362.40;107852;1270;25248;-79
2022/09/06 00:42:03;;;;;;;7.90;4.40;;;;;;;11.65;71.05;97357.77;107809;1270;25768;-78
2022/09/06 00:44:34;;;;;;;6.80;3.90;;;;;;;11.67;71.05;97360.69;107861;1270;22533;-78
2022/09/06 00:47:07;;;;;;;6.40;4.00;;;;;;;11.67;71.01;97361.27;107883;1270;22545;-79
2022/09/06 00:49:41;;;;;;;6.10;3.60;;;;;;;11.53;70.87;97355.86;107846;1270;22599;-79
2022/09/06 00:52:15;;;;;;;6.50;4.30;;;;;;;11.49;71.07;97351.34;107785;1271;32085;-78
2022/09/06 00:54:47;;;;;;;5.50;3.80;;;;;;;11.51;71.17;97354.11;107808;1270;22537;-79
2022/09/06 00:57:19;;;;;;;8.10;4.30;;;;;;;11.57;71.16;97352.42;107885;1270;23206;-79
2022/09/06 00:59:51;;;;;;;5.00;4.00;;;;;;;11.58;71.05;97357.52;106783;1270;1429616;-78
2022/09/06 01:02:22;;;;;;;6.00;3.70;;;;;;;11.63;71.01;97357.19;107787;1270;22970;-78
2022/09/06 01:04:54;;;;;;;7.10;4.00;;;;;;;11.67;70.88;97352.61;107876;1270;22567;-79
2022/09/06 01:07:41;;;;;;;6.10;4.40;;;;;;;11.64;70.89;97358.15;107748;1270;22530;-79
2022/09/06 01:10:37;;;;;;;7.50;4.00;;;;;;;11.63;71.20;97355.59;107781;1270;25324;-79
2022/09/06 01:13:20;;;;;;;6.80;4.00;;;;;;;11.66;71.38;97353.78;107788;1270;25478;-79
2022/09/06 01:15:58;;;;;;;5.70;3.70;;;;;;;11.66;71.36;97352.19;107823;1270;22530;-79
2022/09/06 01:18:44;;;;;;;6.70;4.00;;;;;;;11.63;71.38;97350.08;107874;1271;24191;-79
2022/09/06 01:21:40;;;;;;;6.10;4.00;;;;;;;11.66;71.56;97362.07;107850;1270;22519;-78
2022/09/06 01:24:42;;;;;;;6.80;4.00;;;;;;;11.70;71.56;97360.88;107862;1270;23238;-78
2022/09/06 01:27:40;;;;;;;7.10;4.10;;;;;;;11.69;71.49;97360.34;107882;1270;22519;-79
2022/09/06 01:30:13;;;;;;;6.20;3.60;;;;;;;11.73;71.56;97360.59;107857;1270;22541;-79
2022/09/06 01:32:54;;;;;;;6.70;3.70;;;;;;;11.77;71.75;97361.86;107829;1270;26263;-78
2022/09/06 01:35:31;;;;;;;6.00;3.90;;;;;;;11.75;71.39;97357.45;107932;1270;25531;-78
2022/09/06 01:38:03;;;;;;;5.30;3.90;;;;;;;11.73;71.62;97358.25;107897;1270;22551;-79
2022/09/06 01:40:35;;;;;;;5.30;3.60;;;;;;;11.71;71.69;97352.95;107893;1270;22522;-78
2022/09/06 01:43:10;;;;;;;6.30;4.10;;;;;;;11.68;71.63;97358.98;107830;1270;31270;-79
2022/09/06 01:45:57;;;;;;;6.00;3.90;;;;;;;11.65;71.79;97354.48;107914;1270;25431;-78
2022/09/06 01:48:43;;;;;;;5.40;3.70;;;;;;;11.65;72.00;97355.00;107902;1270;22697;-78
2022/09/06 01:51:24;;;;;;;5.60;3.40;;;;;;;11.65;71.85;97351.71;107899;1270;22516;-78
2022/09/06 01:54:06;;;;;;;7.90;3.90;;;;;;;11.63;71.96;97354.69;107856;1270;25266;-79
2022/09/06 01:56:46;;;;;;;8.20;4.00;;;;;;;11.62;71.95;97351.83;107903;1270;22524;-79
2022/09/06 01:59:47;;;;;;;4.80;3.40;;;;;;;11.59;71.78;97350.45;107898;1270;22615;-78
2022/09/06 02:02:26;;;;;;;6.50;3.80;;;;;;;11.50;71.66;97347.95;107808;1270;31683;-78
2022/09/06 02:05:03;;;;;;;7.40;4.20;;;;;;;11.41;71.77;97346.52;107828;1270;22566;-78
2022/09/06 02:07:38;;;;;;;7.40;4.00;;;;;;;11.38;72.01;97348.26;107865;1270;22547;-78
2022/09/06 02:10:17;;;;;;;7.40;3.80;;;;;;;11.36;71.99;97345.81;107811;1270;23244;-78
2022/09/06 02:12:53;;;;;;;5.50;3.90;;;;;;;11.31;71.80;97346.34;107819;1270;24385;-78
2022/09/06 02:15:27;;;;;;;6.80;3.80;;;;;;;11.26;71.97;97345.34;107854;1270;26427;-79
2022/09/06 02:18:02;;;;;;;7.00;4.50;;;;;;;11.28;72.14;97347.68;107893;1270;24389;-79
2022/09/06 02:20:38;;;;;;;6.90;4.30;;;;;;;11.23;72.15;97351.75;107833;1270;23595;-78
2022/09/06 02:23:10;;;;;;;6.40;4.20;;;;;;;11.20;72.25;97342.14;107768;1270;26270;-78
2022/09/06 02:25:44;;;;;;;5.60;4.00;;;;;;;11.07;72.30;97340.75;107842;1270;22568;-79
2022/09/06 02:28:15;;;;;;;6.50;4.10;;;;;;;11.01;72.89;97339.73;107858;1270;22542;-78
2022/09/06 02:30:49;;;;;;;7.20;4.20;;;;;;;11.02;73.14;97339.47;107813;1270;22673;-78
2022/09/06 02:33:24;;;;;;;6.30;3.90;;;;;;;10.99;73.42;97335.64;107752;1270;25277;-78
2022/09/06 02:36:02;;;;;;;6.80;3.80;;;;;;;10.90;73.56;97337.36;107816;1270;24296;-78
2022/09/06 02:38:34;;;;;;;6.10;3.60;;;;;;;10.87;73.70;97330.90;107836;1270;23101;-79
2022/09/06 02:41:07;;;;;;;6.40;4.10;;;;;;;10.84;73.84;97330.23;107829;1270;22543;-78
2022/09/06 02:43:38;;;;;;;6.50;3.80;;;;;;;10.84;74.10;97325.38;107823;1270;26552;-78
2022/09/06 02:46:11;;;;;;;7.20;3.90;;;;;;;10.82;74.26;97325.52;107923;1270;22515;-78
2022/09/06 02:48:42;;;;;;;10.00;4.20;;;;;;;10.76;74.54;97329.33;107814;1270;22705;-78
2022/09/06 02:51:13;;;;;;;6.50;4.10;;;;;;;10.76;74.81;97324.98;107947;1270;22537;-78
2022/09/06 02:53:44;;;;;;;6.30;4.20;;;;;;;10.69;74.83;97323.67;107851;1270;31791;-78
2022/09/06 02:56:15;;;;;;;6.50;4.50;;;;;;;10.70;75.09;97327.77;107917;1269;22611;-78
2022/09/06 02:58:48;;;;;;;7.30;4.20;;;;;;;10.74;75.15;97326.94;107973;1270;22660;-78
2022/09/06 03:01:22;;;;;;;5.60;3.90;;;;;;;10.84;75.45;97326.38;107932;1270;23058;-78
2022/09/06 03:03:53;;;;;;;6.50;4.30;;;;;;;10.95;75.57;97325.81;107850;1270;28373;-78
2022/09/06 03:06:24;;;;;;;7.10;4.70;;;;;;;11.01;75.40;97324.61;107919;1270;22542;-78
2022/09/06 03:08:55;;;;;;;8.00;4.20;;;;;;;11.05;75.45;97320.80;107938;1270;23673;-78
2022/09/06 03:11:26;;;;;;;7.50;4.30;;;;;;;10.97;75.52;97318.29;107938;1270;22616;-78
2022/09/06 03:14:00;;;;;;;7.70;4.50;;;;;;;10.92;75.75;97312.91;107877;1270;26632;-78
2022/09/06 03:16:31;;;;;;;6.30;3.90;;;;;;;11.00;75.96;97311.14;107902;1270;22547;-78
2022/09/06 03:19:02;;;;;;;6.90;4.10;;;;;;;11.03;75.95;97307.46;107925;1270;22534;-78
2022/09/06 03:21:33;;;;;;;8.00;4.30;;;;;;;10.79;75.88;97310.06;107940;1270;22551;-78
2022/09/06 03:24:04;;;;;;;7.50;4.40;;;;;;;10.54;76.43;97314.79;107849;1270;23831;-78
2022/09/06 03:26:35;;;;;;;7.80;4.20;;;;;;;10.43;77.04;97312.52;107915;1270;22547;-78
2022/09/06 03:29:07;;;;;;;6.10;4.40;;;;;;;10.44;77.23;97310.62;107923;1270;22534;-78
2022/09/06 03:31:38;;;;;;;9.40;4.80;;;;;;;10.52;77.34;97311.54;107939;1270;22557;-78
2022/09/06 03:34:09;;;;;;;6.40;3.90;;;;;;;10.59;77.66;97311.94;107907;1270;22531;-78
2022/09/06 03:36:40;;;;;;;8.00;4.50;;;;;;;10.63;77.68;97309.19;107919;1270;22524;-78
2022/09/06 03:39:12;;;;;;;6.60;4.60;;;;;;;10.58;77.96;97314.05;107957;1270;24329;-78
2022/09/06 03:41:43;;;;;;;8.50;4.30;;;;;;;10.53;78.05;97313.49;107847;1270;32323;-77
2022/09/06 03:44:16;;;;;;;6.40;4.40;;;;;;;10.58;78.25;97315.64;107970;1270;22519;-78
2022/09/06 03:46:48;;;;;;;7.50;4.70;;;;;;;10.53;78.31;97314.51;107965;1270;22536;-78
2022/09/06 03:49:19;;;;;;;7.20;4.50;;;;;;;10.46;78.56;97313.86;107927;1270;22541;-78
2022/09/06 03:51:50;;;;;;;7.40;4.20;;;;;;;10.46;78.65;97311.99;107919;1270;26301;-78
2022/09/06 03:54:21;;;;;;;7.30;4.80;;;;;;;10.51;78.88;97310.78;107812;1270;25159;-79
2022/09/06 03:56:54;;;;;;;6.30;4.40;;;;;;;10.54;78.85;97311.80;107893;1270;22561;-78
2022/09/06 03:59:25;;;;;;;8.20;4.50;;;;;;;10.59;78.76;97314.11;107864;1270;22597;-78
2022/09/06 04:01:57;;;;;;;6.40;4.40;;;;;;;10.67;78.71;97315.14;107855;1270;38019;-78
2022/09/06 04:04:28;;;;;;;7.70;4.70;;;;;;;10.79;78.84;97314.89;107916;1270;22920;-78
2022/09/06 04:06:59;;;;;;;6.60;4.10;;;;;;;10.91;78.97;97313.17;107942;1270;24238;-78
2022/09/06 04:09:31;;;;;;;6.30;4.50;;;;;;;10.92;79.04;97309.20;107958;1270;22695;-78
2022/09/06 04:12:02;;;;;;;6.20;4.00;;;;;;;10.78;79.16;97308.16;107847;1270;27543;-78
2022/09/06 04:14:33;;;;;;;6.20;4.60;;;;;;;10.69;79.45;97307.33;107826;1270;22522;-79
2022/09/06 04:17:05;;;;;;;7.60;4.50;;;;;;;10.71;79.66;97306.02;107742;1271;22553;-78
2022/09/06 04:19:36;;;;;;;7.10;4.20;;;;;;;10.89;79.91;97301.50;107830;1270;22626;-78
2022/09/06 04:22:07;;;;;;;8.70;4.70;;;;;;;11.30;80.55;97301.80;107651;1271;26438;-78
2022/09/06 04:24:38;;;;;;;5.40;3.90;;;;;;;11.67;80.22;97310.82;107705;1271;22529;-78
2022/09/06 04:27:12;;;;;;;8.20;4.30;;;;;;;11.81;79.44;97310.55;107795;1270;22551;-78
2022/09/06 04:29:43;;;;;;;7.20;4.10;;;;;;;11.97;79.40;97309.99;107808;1270;22613;-79
2022/09/06 04:32:14;;;;;;;7.80;4.60;;;;;;;12.54;79.70;97305.00;107802;1270;37973;-78
2022/09/06 04:34:45;;;;;;;8.80;4.90;;;;;;;13.19;78.79;97299.37;107937;1269;22607;-79
2022/09/06 04:37:18;;;;;;;7.60;4.60;;;;;;;13.74;77.27;97297.42;107899;1270;24333;-79
2022/09/06 04:39:50;;;;;;;7.10;4.40;;;;;;;14.10;75.74;97292.44;107911;1270;22594;-78
2022/09/06 04:42:21;;;;;;;6.80;4.10;;;;;;;13.94;74.40;97294.46;107854;1270;27273;-78
2022/09/06 04:44:52;;;;;;;6.30;4.00;;;;;;;13.78;74.39;97297.45;107961;1270;22612;-78
2022/09/06 04:47:23;;;;;;;6.20;4.10;;;;;;;13.62;74.00;97298.55;107835;1270;25424;-78
2022/09/06 04:49:54;;;;;;;5.90;4.20;;;;;;;13.41;73.85;97302.73;107908;1270;22614;-78
2022/09/06 04:52:25;;;;;;;8.60;4.30;;;;;;;13.27;73.88;97302.47;107873;1270;29264;-78
2022/09/06 04:54:57;;;;;;;6.70;4.30;;;;;;;13.24;74.39;97306.21;107908;1270;25242;-78
2022/09/06 04:57:28;;;;;;;5.50;4.10;;;;;;;13.92;75.65;97302.94;107905;1270;22542;-79
2022/09/06 04:59:59;;;;;;;5.70;3.50;;;;;;;14.90;74.86;97306.44;107882;1270;22688;-79
2022/09/06 05:02:30;;;;;;;5.80;4.00;;;;;;;15.79;73.32;97309.67;107863;1270;32807;-78
2022/09/06 05:05:01;;;;;;;6.00;4.50;;;;;;;16.69;72.31;97311.47;107832;1270;22540;-78
2022/09/06 05:07:33;;;;;;;8.10;5.10;;;;;;;17.31;69.82;97306.27;107953;1270;22697;-79
2022/09/06 05:10:05;;;;;;;5.80;4.60;;;;;;;17.42;67.76;97305.20;107906;1270;23044;-78
2022/09/06 05:12:36;;;;;;;6.50;4.40;;;;;;;17.52;67.14;97307.95;107850;1270;28468;-78
2022/09/06 05:15:09;;;;;;;7.10;4.60;;;;;;;18.13;67.73;97304.48;107912;1270;24484;-78
2022/09/06 05:17:40;;;;;;;7.20;4.30;;;;;;;18.91;66.63;97304.54;107927;1270;25320;-78
2022/09/06 05:20:13;;;;;;;7.90;4.80;;;;;;;19.27;65.29;97302.89;107943;1269;22651;-78
2022/09/06 05:22:51;;;;;;;6.10;4.70;;;;;;;18.91;63.09;97305.45;107820;1270;28852;-78
2022/09/06 05:25:23;;;;;;;6.40;4.00;;;;;;;18.73;63.05;97308.36;107917;1270;22538;-78
2022/09/06 05:27:54;;;;;;;5.10;4.20;;;;;;;19.08;62.28;97308.42;107910;1268;23769;-78
2022/09/06 05:30:27;;;;;;;5.90;4.40;;;;;;;19.45;61.48;97305.92;107942;1270;22588;-78
2022/09/06 05:32:58;;;;;;;6.20;4.30;;;;;;;19.26;61.04;97303.38;107794;1270;26598;-78
2022/09/06 05:35:29;;;;;;;6.80;4.00;;;;;;;19.00;60.79;97305.30;107944;1270;22543;-78
2022/09/06 05:38:00;;;;;;;6.30;4.20;;;;;;;18.52;60.22;97309.42;107908;1270;23086;-78
2022/09/06 05:40:32;;;;;;;5.90;4.40;;;;;;;18.34;61.11;97311.16;107900;1270;25359;-78
2022/09/06 05:43:03;;;;;;;8.90;4.90;;;;;;;19.05;61.33;97309.65;107872;1270;24359;-78
2022/09/06 05:45:34;;;;;;;5.90;4.50;;;;;;;20.32;59.90;97313.61;107818;1270;22615;-78
2022/09/06 05:48:06;;;;;;;7.90;4.70;;;;;;;21.70;57.83;97313.27;107878;1270;22641;-78
2022/09/06 05:50:37;;;;;;;7.10;4.40;;;;;;;22.98;56.28;97313.02;107913;1270;22687;-79
2022/09/06 05:53:09;;;;;;;8.20;5.00;;;;;;;23.64;53.69;97310.55;107847;1270;31683;-78
2022/09/06 05:55:41;;;;;;;6.00;4.60;;;;;;;23.18;52.36;97316.18;107914;1268;23707;-79
2022/09/06 05:58:16;;;;;;;7.10;4.70;;;;;;;22.91;52.10;97316.02;107899;1269;22544;-78
2022/09/06 06:00:47;;;;;;;7.20;4.90;;;;;;;22.90;51.84;97315.59;107945;1270;22691;-79
2022/09/06 06:03:18;;;;;;;7.30;4.30;;;;;;;22.56;51.31;97321.73;107835;1270;26041;-78
2022/09/06 06:05:50;;;;;;;7.00;4.90;;;;;;;22.13;50.79;97317.23;107976;1270;22565;-78
2022/09/06 06:08:21;;;;;;;9.60;5.00;;;;;;;21.14;50.36;97318.96;107945;1270;22516;-79
2022/09/06 06:10:52;;;;;;;8.30;5.10;;;;;;;21.00;51.35;97325.70;107952;1270;22534;-79
2022/09/06 06:13:23;;;;;;;8.00;5.50;;;;;;;21.00;51.71;97326.86;107831;1270;28523;-79
2022/09/06 06:15:54;;;;;;;7.90;5.40;;;;;;;21.08;52.05;97325.91;107911;1270;23206;-79
2022/09/06 06:18:26;;;;;;;7.90;5.30;;;;;;;21.29;51.69;97326.52;107935;1270;22697;-78
2022/09/06 06:21:14;;;;;;;8.10;5.40;;;;;;;21.29;51.27;97320.76;107922;1270;25365;-79
2022/09/06 06:23:49;;;;;;;7.90;5.70;;;;;;;20.93;51.31;97324.76;107886;1270;34109;-79
2022/09/06 06:26:21;;;;;;;6.90;5.00;;;;;;;20.72;51.63;97325.71;107906;1269;22594;-78
2022/09/06 06:28:54;;;;;;;7.50;5.80;;;;;;;20.74;51.55;97319.55;107951;1270;22542;-79
2022/09/06 06:31:25;;;;;;;8.80;5.70;;;;;;;21.11;51.74;97318.85;107940;1270;22550;-79
2022/09/06 06:33:57;;;;;;;9.10;5.90;;;;;;;21.84;51.53;97317.48;107814;1270;26015;-79
2022/09/06 06:36:30;;;;;;;6.90;5.50;;;;;;;23.79;51.63;97314.91;107930;1270;22537;-79
2022/09/06 06:39:03;;;;;;;9.00;5.50;;;;;;;25.55;48.67;97313.55;107914;1270;22538;-79
2022/09/06 06:41:35;;;;;;;7.70;5.20;;;;;;;26.36;45.86;97304.86;107968;1270;25355;-79
2022/09/06 06:44:07;;;;;;;6.70;5.50;;;;;;;26.86;44.17;97305.95;107886;1270;33505;-79
2022/09/06 06:46:40;;;;;;;8.00;5.10;;;;;;;27.48;43.48;97305.27;107937;1270;22528;-79
2022/09/06 06:49:14;;;;;;;7.90;4.80;;;;;;;28.92;42.77;97304.70;107888;1270;22525;-79
2022/09/06 06:51:45;;;;;;;7.30;5.10;;;;;;;30.22;40.67;97308.70;107872;1270;30180;-78
2022/09/06 06:54:17;;;;;;;7.40;5.20;;;;;;;30.27;39.15;97314.59;107800;1269;22531;-78
2022/09/06 06:56:48;;;;;;;6.50;4.80;;;;;;;29.31;38.16;97316.61;107969;1270;22996;-79
2022/09/06 06:59:20;;;;;;;6.40;5.00;;;;;;;28.54;39.01;97313.58;107912;1270;22526;-78
2022/09/06 07:01:51;;;;;;;8.50;5.60;;;;;;;27.88;39.06;97313.44;107850;1270;31712;-78
2022/09/06 07:04:22;;;;;;;6.50;5.00;;;;;;;27.72;39.58;97313.88;107836;1270;22534;-78
2022/09/06 07:06:55;;;;;;;6.70;5.00;;;;;;;28.17;37.91;97311.93;107832;1270;22609;-78
2022/09/06 07:09:26;;;;;;;7.90;5.10;;;;;;;28.45;38.65;97311.39;107933;1270;22519;-78
2022/09/06 07:11:58;;;;;;;9.90;5.40;;;;;;;29.26;36.24;97318.17;107859;1270;31624;-78
2022/09/06 07:14:30;;;;;;;7.20;5.10;;;;;;;29.92;37.64;97318.86;107951;1270;24420;-79
2022/09/06 07:17:01;;;;;;;5.30;4.70;;;;;;;31.32;36.67;97317.33;107912;1270;22540;-79
2022/09/06 07:19:32;;;;;;;5.90;5.20;;;;;;;31.83;35.55;97316.73;107937;1270;22624;-79
2022/09/06 07:22:03;;;;;;;6.80;4.80;;;;;;;31.65;35.28;97326.21;107830;1270;26702;-78
2022/09/06 07:24:34;;;;;;;5.60;4.50;;;;;;;32.57;35.49;97325.15;107904;1270;24134;-79
2022/09/06 07:27:05;;;;;;;8.10;4.80;;;;;;;33.31;34.32;97327.65;107919;1270;22545;-79
2022/09/06 07:29:36;;;;;;;6.50;4.30;;;;;;;34.16;33.28;97329.16;107905;1270;24720;-79
2022/09/06 07:32:08;;;;;;;7.20;5.40;;;;;;;34.62;32.46;97329.78;107810;1270;26245;-79
2022/09/06 07:34:39;;;;;;;8.40;5.70;;;;;;;35.44;31.69;97332.86;107908;1270;25618;-79
2022/09/06 07:37:10;;;;;;;6.90;5.30;;;;;;;35.37;30.03;97329.77;107908;1270;22534;-79
2022/09/06 07:39:41;;;;;;;7.40;5.90;;;;;;;35.57;30.27;97327.85;107943;1270;22573;-79
2022/09/06 07:42:12;;;;;;;8.10;6.00;;;;;;;36.48;30.31;97330.79;107871;1270;27025;-79
2022/09/06 07:44:43;;;;;;;6.10;5.40;;;;;;;37.16;29.11;97329.23;107816;1270;22519;-79
2022/09/06 07:47:16;;;;;;;8.80;5.70;;;;;;;37.10;27.37;97331.98;107902;1270;25302;-80
2022/09/06 07:49:48;;;;;;;7.80;5.50;;;;;;;35.90;27.27;97333.30;107895;1270;25244;-79
2022/09/06 07:52:19;;;;;;;7.00;5.10;;;;;;;34.77;28.17;97337.63;107879;1270;26962;-79
2022/09/06 07:54:50;;;;;;;6.50;4.60;;;;;;;35.54;28.72;97335.48;107914;1270;23198;-80
2022/09/06 07:57:21;;;;;;;6.00;4.70;;;;;;;36.03;26.49;97335.41;107903;1270;23207;-80
2022/09/06 07:59:54;;;;;;;6.10;4.90;;;;;;;36.03;27.05;97331.54;107901;1270;22683;-80
2022/09/06 08:02:26;;;;;;;6.30;4.30;;;;;;;36.73;27.05;97332.23;107796;1270;40070;-79
2022/09/06 08:04:57;;;;;;;5.00;4.20;;;;;;;37.26;26.52;97332.38;107949;1270;22519;-80
2022/09/06 08:07:28;;;;;;;7.10;4.30;;;;;;;36.85;26.35;97324.58;107938;1270;24269;-80
2022/09/06 08:09:59;;;;;;;6.10;4.50;;;;;;;36.60;26.31;97321.66;107936;1270;22638;-80
2022/09/06 08:12:30;;;;;;;6.10;4.80;;;;;;;36.15;25.96;97323.05;107870;1270;29245;-79
2022/09/06 08:15:02;;;;;;;7.80;5.30;;;;;;;35.44;26.49;97321.20;107934;1270;22534;-79
2022/09/06 08:17:34;;;;;;;9.60;5.90;;;;;;;35.65;27.13;97322.88;107923;1270;24476;-79
2022/09/06 08:20:07;;;;;;;6.50;5.10;;;;;;;36.35;26.45;97318.02;107946;1270;22537;-80
2022/09/06 08:22:38;;;;;;;8.20;6.00;;;;;;;35.84;26.75;97317.05;107861;1270;27008;-79
2022/09/06 08:25:10;;;;;;;9.50;6.20;;;;;;;34.35;26.48;97315.13;107939;1270;22603;-80
2022/09/06 08:27:41;;;;;;;8.40;6.20;;;;;;;32.92;27.92;97315.26;107910;1270;22596;-79
2022/09/06 08:30:14;;;;;;;8.80;6.00;;;;;;;32.03;28.84;97311.98;107868;1270;22519;-79
2022/09/06 08:32:45;;;;;;;9.10;6.70;;;;;;;32.34;29.07;97313.66;107895;1270;27198;-79
2022/09/06 08:35:16;;;;;;;9.50;6.70;;;;;;;33.14;29.27;97309.23;107922;1270;22529;-80
2022/09/06 08:37:47;;;;;;;9.80;6.80;;;;;;;33.71;28.74;97314.36;107897;1270;22684;-80
2022/09/06 08:40:23;;;;;;;11.60;6.90;;;;;;;33.01;28.74;97306.43;107918;1270;22543;-79
2022/09/06 08:42:54;;;;;;;7.90;6.40;;;;;;;31.43;29.74;97304.61;107852;1270;28040;-80
2022/09/06 08:45:26;;;;;;;8.80;5.90;;;;;;;30.40;30.57;97307.05;107892;1270;22522;-79
2022/09/06 08:47:58;;;;;;;7.70;5.40;;;;;;;30.08;32.07;97309.29;107887;1270;22529;-79
2022/09/06 08:50:30;;;;;;;7.70;5.00;;;;;;;30.72;30.93;97306.81;107913;1270;22531;-79
2022/09/06 08:53:06;;;;;;;8.60;5.70;;;;;;;28.67;31.30;97303.66;107809;1270;34254;-79
2022/09/06 08:55:43;;;;;;;7.00;5.20;;;;;;;28.88;33.32;97300.23;107868;1270;23236;-79
2022/09/06 08:58:39;;;;;;;8.50;5.10;;;;;;;30.50;32.35;97299.09;107909;1270;22509;-79
2022/09/06 09:01:24;;;;;;;7.30;4.90;;;;;;;31.50;30.70;97303.25;107758;1270;22693;-79
2022/09/06 09:03:59;;;;;;;7.50;4.60;;;;;;;29.80;30.53;97299.38;107876;1270;26906;-79
2022/09/06 09:06:33;;;;;;;6.30;4.30;;;;;;;28.66;32.05;97296.44;107886;1270;22518;-79
2022/09/06 09:09:07;;;;;;;8.20;4.80;;;;;;;28.38;32.55;97299.27;107918;1270;25246;-79
2022/09/06 09:11:40;;;;;;;5.00;4.30;;;;;;;27.79;33.28;97294.27;107922;1270;22549;-79
2022/09/06 09:14:18;;;;;;;5.60;4.10;;;;;;;27.22;33.19;97298.56;107965;1270;23249;-79
2022/09/06 09:16:53;;;;;;;7.00;4.10;;;;;;;25.59;32.99;97299.63;107923;1270;22569;-79
2022/09/06 09:19:24;;;;;;;6.20;4.30;;;;;;;24.05;34.85;97296.46;107943;1270;22613;-79
2022/09/06 09:21:55;;;;;;;8.00;4.40;;;;;;;23.32;36.66;97287.92;107829;1270;26394;-78
2022/09/06 09:24:26;;;;;;;5.30;4.10;;;;;;;22.81;38.02;97282.02;107942;1270;22522;-79
2022/09/06 09:27:03;;;;;;;4.80;4.00;;;;;;;22.59;38.81;97284.81;107921;1270;23143;-79
2022/09/06 09:29:54;;;;;;;6.00;3.60;;;;;;;22.52;38.82;97290.09;107908;1270;23278;-79
2022/09/06 09:32:34;;;;;;;7.40;4.50;;;;;;;22.21;39.15;97287.39;107766;1270;59364;-79
2022/09/06 09:35:30;;;;;;;7.70;4.90;;;;;;;21.99;40.33;97286.13;107931;1270;25244;-79
2022/09/06 09:38:06;;;;;;;8.80;5.10;;;;;;;22.08;40.56;97283.52;107918;1270;22535;-80
2022/09/06 09:40:40;;;;;;;11.00;5.60;;;;;;;22.05;40.19;97280.15;107922;1268;22536;-79
2022/09/06 09:43:19;;;;;;;6.30;4.40;;;;;;;21.66;40.57;97272.38;107876;1270;28784;-79
2022/09/06 09:46:09;;;;;;;7.30;4.40;;;;;;;21.55;40.91;97274.14;107959;1270;22574;-80
2022/09/06 09:48:41;;;;;;;5.50;4.00;;;;;;;21.44;40.97;97273.68;107809;1270;22543;-79
2022/09/06 09:51:25;;;;;;;5.80;4.30;;;;;;;21.30;41.47;97274.20;107901;1270;22538;-79
2022/09/06 09:54:00;;;;;;;4.60;3.60;;;;;;;21.35;42.34;97274.36;107863;1270;35650;-79
2022/09/06 09:56:46;;;;;;;6.40;3.60;;;;;;;21.80;41.81;97266.60;107782;1270;22539;-79
2022/09/06 09:59:25;;;;;;;8.30;4.80;;;;;;;21.97;41.22;97264.48;107937;1270;22524;-79
2022/09/06 10:02:00;;;;;;;7.00;4.20;;;;;;;21.83;41.61;97259.70;107855;1270;25377;-79
2022/09/06 10:04:40;;;;;;;7.60;4.20;;;;;;;21.86;41.93;97259.10;107906;1270;22524;-79
2022/09/06 10:07:18;;;;;;;8.70;4.40;;;;;;;21.93;42.20;97258.25;107917;1270;23012;-80
2022/09/06 10:09:57;;;;;;;7.90;4.70;;;;;;;22.04;42.05;97262.55;107883;1270;23124;-79
2022/09/06 10:12:33;;;;;;;6.20;4.20;;;;;;;22.10;41.77;97260.89;107856;1270;26155;-79
2022/09/06 10:15:05;;;;;;;6.30;4.00;;;;;;;21.95;42.00;97259.63;107942;1270;24710;-79
2022/09/06 10:17:47;;;;;;;7.20;4.30;;;;;;;21.94;42.56;97254.46;107787;1270;22863;-79
2022/09/06 10:20:19;;;;;;;7.60;4.60;;;;;;;21.58;41.94;97253.91;107916;1270;22541;-79
2022/09/06 10:23:00;;;;;;;5.90;4.00;;;;;;;21.34;43.47;97245.68;107877;1270;24568;-79
2022/09/06 10:25:45;;;;;;;6.70;3.80;;;;;;;21.53;43.29;97246.64;107873;1270;22640;-79
2022/09/06 10:28:30;;;;;;;7.10;4.40;;;;;;;21.36;43.32;97243.34;107911;1270;22545;-79
2022/09/06 10:31:33;;;;;;;6.00;4.20;;;;;;;21.09;43.72;97248.77;107914;1270;22535;-78
2022/09/06 10:34:58;;;;;;;8.50;4.40;;;;;;;20.53;43.41;97250.92;107837;1270;37660;-79
2022/09/06 10:37:45;;;;;;;6.10;3.90;;;;;;;20.39;45.36;97243.95;107751;1270;24907;-79
2022/09/06 10:40:33;;;;;;;7.00;3.80;;;;;;;20.39;44.44;97244.92;107906;1270;22553;-79
2022/09/06 10:43:07;;;;;;;7.30;3.90;;;;;;;20.19;44.87;97240.89;107821;1270;29546;-79
2022/09/06 10:45:57;;;;;;;7.80;4.30;;;;;;;20.16;44.84;97240.79;107917;1270;26552;-79
2022/09/06 10:48:32;;;;;;;7.20;4.40;;;;;;;19.93;45.04;97240.45;107786;1270;22546;-78
2022/09/06 10:51:11;;;;;;;8.50;4.00;;;;;;;19.74;45.41;97239.44;107904;1270;22550;-78
2022/09/06 10:53:47;;;;;;;5.70;3.40;;;;;;;19.58;45.48;97238.45;107871;1270;26067;-79
2022/09/06 10:56:23;;;;;;;5.10;3.60;;;;;;;19.40;45.87;97231.99;107933;1270;22581;-80
2022/09/06 10:58:59;;;;;;;6.20;3.60;;;;;;;19.42;46.09;97233.95;107908;1270;22524;-79
2022/09/06 11:01:39;;;;;;;6.60;4.10;;;;;;;19.44;46.61;97238.03;107887;1270;23213;-79
2022/09/06 11:04:18;;;;;;;6.20;3.70;;;;;;;19.54;46.92;97239.38;107929;1270;22536;-79
2022/09/06 11:06:56;;;;;;;6.30;4.10;;;;;;;19.52;47.00;97240.23;107898;1270;22544;-79
2022/09/06 11:09:34;;;;;;;6.80;4.00;;;;;;;19.50;47.41;97234.02;107943;1270;22553;-79
2022/09/06 11:12:12;;;;;;;5.40;3.80;;;;;;;19.47;47.69;97228.56;107898;1270;30684;-80
2022/09/06 11:14:43;;;;;;;6.60;3.70;;;;;;;19.45;47.61;97223.61;107922;1270;25462;-80
2022/09/06 11:17:23;;;;;;;5.90;3.70;;;;;;;19.48;47.94;97223.00;107924;1270;22603;-79
2022/09/06 11:20:05;;;;;;;7.40;4.00;;;;;;;19.59;48.20;97214.46;107919;1270;22543;-80
2022/09/06 11:23:07;;;;;;;6.50;3.80;;;;;;;19.62;47.69;97211.44;107870;1270;25414;-79
2022/09/06 11:26:02;;;;;;;7.10;3.90;;;;;;;19.60;48.00;97218.73;107915;1270;22619;-79
2022/09/06 11:28:39;;;;;;;6.70;3.70;;;;;;;19.60;48.26;97222.81;107932;1270;22617;-79
2022/09/06 11:31:19;;;;;;;7.20;3.70;;;;;;;19.60;48.16;97217.42;107886;1270;22528;-79
2022/09/06 11:34:01;;;;;;;6.00;3.80;;;;;;;19.64;48.69;97212.67;107831;1270;28498;-79
2022/09/06 11:36:37;;;;;;;7.80;4.10;;;;;;;19.79;48.72;97213.96;107918;1270;22539;-79
2022/09/06 11:39:10;;;;;;;4.80;3.20;;;;;;;19.95;48.46;97212.70;107889;1270;22664;-79
2022/09/06 11:41:45;;;;;;;5.30;3.60;;;;;;;20.12;48.42;97222.40;107974;1270;22520;-80
2022/09/06 11:45:16;;;;;;;6.40;3.60;;;;;;;20.24;47.89;97220.98;107785;1270;22550;-80
2022/09/06 11:47:49;;;;;;;6.00;3.40;;;;;;;20.48;47.72;97212.27;107928;1270;22552;-80
2022/09/06 11:50:42;;;;;;;5.90;3.40;;;;;;;20.75;47.69;97203.03;107920;1270;22528;-79
2022/09/06 11:53:17;;;;;;;4.90;3.30;;;;;;;20.98;47.24;97201.13;107839;1270;26714;-79
2022/09/06 11:55:51;;;;;;;5.60;3.40;;;;;;;21.08;46.90;97202.43;107901;1270;25267;-78
2022/09/06 11:58:28;;;;;;;7.60;3.90;;;;;;;20.96;45.79;97200.77;107905;1270;22557;-78
2022/09/06 12:01:41;;;;;;;5.10;3.70;;;;;;;20.41;44.83;97202.34;107916;1270;25378;-78